Time;durP1;ratioP1;P1;durP2;ratioP2;P2;SDS_P1;SDS_P2;PMS_P1;PMS_P2;Temp;Humidity;BMP_temperature;BMP_pressure;BME280_temperature;BME280_humidity;BME280_pressure;Samples;Min_cycle;Max_cycle;Signal;HPM_P1;HPM_P2
2022/12/02 00:00:51;;;;;;;42.90;25.50;;;;;;;-1.72;74.72;101377.67;99844;1294;108187;-69
2022/12/02 00:03:22;;;;;;;41.90;25.80;;;;;;;-1.73;74.70;101380.04;100319;1294;138953;-68
2022/12/02 00:05:54;;;;;;;43.00;25.90;;;;;;;-1.73;75.07;101378.34;100441;1299;107355;-68
2022/12/02 00:08:23;;;;;;;40.70;25.30;;;;;;;-1.75;74.72;101377.23;99663;1293;139301;-68
2022/12/02 00:10:52;;;;;;;41.00;24.90;;;;;;;-1.75;74.88;101375.19;99836;1294;111263;-68
2022/12/02 00:13:25;;;;;;;41.80;24.40;;;;;;;-1.73;74.85;101374.06;99832;1295;108099;-70
2022/12/02 00:15:56;;;;;;;39.80;24.30;;;;;;;-1.75;74.54;101375.69;99776;1294;138918;-68
2022/12/02 00:18:23;;;;;;;41.40;24.90;;;;;;;-1.79;74.46;101378.79;100102;1294;107064;-69
2022/12/02 00:20:50;;;;;;;42.60;27.40;;;;;;;-1.80;74.69;101377.40;99765;1296;137911;-68
2022/12/02 00:23:18;;;;;;;44.70;28.40;;;;;;;-1.84;74.60;101376.42;99853;1286;111293;-69
2022/12/02 00:25:49;;;;;;;45.80;27.80;;;;;;;-1.88;74.76;101376.61;100034;1297;138020;-68
2022/12/02 00:28:16;;;;;;;39.40;25.60;;;;;;;-1.89;74.65;101376.92;99902;1296;97905;-68
2022/12/02 00:30:45;;;;;;;40.50;24.80;;;;;;;-1.92;74.58;101379.36;99807;1296;107929;-68
2022/12/02 00:33:12;;;;;;;40.10;24.30;;;;;;;-2.01;74.57;101375.09;99696;1293;138542;-69
2022/12/02 00:35:39;;;;;;;33.70;20.60;;;;;;;-2.07;74.44;101376.74;99868;1294;112090;-69
2022/12/02 00:38:07;;;;;;;33.20;21.00;;;;;;;-2.13;74.25;101377.91;99721;1294;138892;-68
2022/12/02 00:40:34;;;;;;;33.80;22.10;;;;;;;-2.15;74.38;101382.45;99820;1294;97837;-68
2022/12/02 00:48:32;;;;;;;32.40;20.50;;;;;;;-2.21;74.38;101382.89;99845;1286;111345;-69
2022/12/02 00:50:59;;;;;;;35.00;20.50;;;;;;;-2.24;74.06;101385.64;99001;1294;1003123;-69
2022/12/02 00:53:26;;;;;;;34.70;21.80;;;;;;;-2.30;74.53;101385.11;99888;1295;97848;-69
2022/12/02 00:55:54;;;;;;;37.00;22.20;;;;;;;-2.33;74.28;101386.84;99822;1287;137932;-68
2022/12/02 00:58:21;;;;;;;36.60;22.30;;;;;;;-2.36;74.69;101383.81;99818;1296;97803;-69
2022/12/02 01:00:48;;;;;;;37.80;21.70;;;;;;;-2.40;74.49;101386.06;99863;1294;110321;-68
2022/12/02 01:03:16;;;;;;;36.30;21.20;;;;;;;-2.44;74.47;101383.38;101067;1301;139039;-70
2022/12/02 01:05:43;;;;;;;37.80;20.60;;;;;;;-2.48;74.65;101383.05;100663;1296;95847;-68
2022/12/02 01:08:10;;;;;;;36.40;21.20;;;;;;;-2.54;74.40;101384.83;100262;1293;138837;-68
2022/12/02 01:10:38;;;;;;;33.10;20.90;;;;;;;-2.58;74.57;101385.52;99829;1294;97739;-68
2022/12/02 01:13:05;;;;;;;35.00;20.90;;;;;;;-2.55;75.12;101381.39;99930;1293;113044;-68
2022/12/02 01:15:33;;;;;;;32.50;20.40;;;;;;;-2.49;75.25;101376.70;99762;1294;139743;-68
2022/12/02 01:18:00;;;;;;;33.10;19.60;;;;;;;-2.41;75.00;101377.50;99933;1296;98330;-69
2022/12/02 01:20:27;;;;;;;33.80;20.50;;;;;;;-2.32;75.02;101378.17;99817;1294;137592;-69
2022/12/02 01:22:54;;;;;;;34.90;21.20;;;;;;;-2.26;75.14;101369.41;99871;1301;97845;-68
2022/12/02 01:25:21;;;;;;;34.30;21.90;;;;;;;-2.20;74.91;101366.39;99869;1294;112223;-68
2022/12/02 01:27:49;;;;;;;34.70;21.80;;;;;;;-2.17;74.74;101359.84;99648;1294;137938;-68
2022/12/02 01:30:17;;;;;;;41.20;23.30;;;;;;;-2.18;74.62;101359.13;99858;1294;98910;-69
2022/12/02 01:32:45;;;;;;;35.30;21.60;;;;;;;-2.21;74.48;101360.05;100599;1293;138206;-68
2022/12/02 01:35:12;;;;;;;32.80;21.20;;;;;;;-2.21;74.54;101356.45;99800;1295;97918;-69
2022/12/02 01:37:40;;;;;;;36.80;22.50;;;;;;;-2.21;74.58;101357.15;99906;1291;113007;-70
2022/12/02 01:40:10;;;;;;;31.30;20.10;;;;;;;-2.20;74.63;101357.87;97575;1294;1015626;-68
2022/12/02 01:42:39;;;;;;;30.30;19.10;;;;;;;-2.17;74.52;101353.02;100500;1294;97884;-68
2022/12/02 01:45:09;;;;;;;31.50;19.60;;;;;;;-2.15;74.68;101353.30;99755;1286;138594;-71
2022/12/02 01:47:37;;;;;;;34.60;19.50;;;;;;;-2.16;74.27;101352.41;99963;1294;97704;-68
2022/12/02 01:50:06;;;;;;;31.90;19.30;;;;;;;-2.17;74.37;101354.23;99688;1296;137949;-68
2022/12/02 01:52:33;;;;;;;30.40;19.70;;;;;;;-2.17;74.14;101354.75;100157;1294;107397;-68
2022/12/02 01:55:00;;;;;;;29.90;19.40;;;;;;;-2.21;74.00;101352.05;99869;1300;97973;-69
2022/12/02 01:57:30;;;;;;;35.50;20.00;;;;;;;-2.23;73.83;101348.73;99669;1302;137744;-69
2022/12/02 01:59:59;;;;;;;31.80;20.20;;;;;;;-2.28;73.72;101349.56;100217;1294;98570;-68
2022/12/02 02:02:32;;;;;;;35.80;21.20;;;;;;;-2.36;73.54;101348.40;99113;1293;1003728;-68
2022/12/02 02:05:03;;;;;;;32.80;20.50;;;;;;;-2.45;73.67;101344.16;100327;1294;107505;-68
2022/12/02 02:07:33;;;;;;;34.30;20.80;;;;;;;-2.51;73.92;101341.36;99821;1292;98458;-68
2022/12/02 02:10:00;;;;;;;31.30;19.90;;;;;;;-2.54;73.94;101343.98;99756;1286;139664;-68
2022/12/02 02:12:28;;;;;;;34.00;19.30;;;;;;;-2.59;73.89;101351.11;99793;1296;97696;-68
2022/12/02 02:14:56;;;;;;;37.30;19.40;;;;;;;-2.62;74.06;101346.90;99680;1291;138391;-68
2022/12/02 02:17:24;;;;;;;33.40;19.20;;;;;;;-2.61;74.43;101343.89;99778;1296;107276;-68
2022/12/02 02:19:51;;;;;;;39.50;19.30;;;;;;;-2.54;74.75;101347.02;99454;1296;1002939;-69
2022/12/02 02:22:24;;;;;;;31.40;19.00;;;;;;;-2.49;74.79;101342.66;101113;1304;106934;-69
2022/12/02 02:24:51;;;;;;;32.10;19.20;;;;;;;-2.40;74.72;101346.02;99897;1297;97968;-69
2022/12/02 02:27:20;;;;;;;34.00;20.60;;;;;;;-2.33;74.78;101347.69;99643;1289;138915;-69
2022/12/02 02:29:48;;;;;;;34.80;21.20;;;;;;;-2.29;74.44;101347.50;99814;1286;109029;-69
2022/12/02 02:32:17;;;;;;;31.70;20.60;;;;;;;-2.32;74.23;101348.21;99770;1292;137921;-69
2022/12/02 02:34:44;;;;;;;36.20;19.80;;;;;;;-2.39;73.86;101348.98;99856;1294;107721;-69
2022/12/02 02:37:12;;;;;;;30.20;19.30;;;;;;;-2.41;74.32;101347.36;99839;1290;98677;-68
2022/12/02 02:39:39;;;;;;;30.80;18.50;;;;;;;-2.39;74.25;101340.78;99789;1294;138402;-69
2022/12/02 02:42:07;;;;;;;29.40;18.10;;;;;;;-2.37;74.23;101339.31;99839;1300;107904;-69
2022/12/02 02:44:34;;;;;;;27.90;18.60;;;;;;;-2.32;74.50;101339.54;99827;1296;138583;-69
2022/12/02 02:47:01;;;;;;;29.70;19.10;;;;;;;-2.27;74.26;101343.13;99779;1294;107924;-69
2022/12/02 02:49:29;;;;;;;33.90;19.60;;;;;;;-2.24;74.26;101339.48;100303;1294;97787;-69
2022/12/02 02:51:56;;;;;;;33.60;19.10;;;;;;;-2.21;74.24;101341.14;100582;1296;138108;-69
2022/12/02 02:54:24;;;;;;;31.60;18.30;;;;;;;-2.22;74.02;101338.70;100210;1293;110549;-69
2022/12/02 02:56:53;;;;;;;31.30;19.50;;;;;;;-2.20;74.14;101339.80;99051;1287;1003030;-69
2022/12/02 02:59:21;;;;;;;34.60;20.10;;;;;;;-2.19;73.75;101340.20;99669;1289;107691;-69
2022/12/02 03:01:50;;;;;;;31.10;20.30;;;;;;;-2.25;73.29;101336.39;99678;1294;138745;-68
2022/12/02 03:04:20;;;;;;;33.10;19.40;;;;;;;-2.32;73.50;101331.71;99783;1291;112122;-68
2022/12/02 03:06:50;;;;;;;31.60;19.20;;;;;;;-2.36;73.61;101327.44;99922;1294;107336;-70
2022/12/02 03:09:20;;;;;;;29.30;18.00;;;;;;;-2.41;73.50;101323.86;99795;1296;138558;-70
2022/12/02 03:11:50;;;;;;;27.00;17.00;;;;;;;-2.46;73.36;101326.41;99801;1294;108077;-70
2022/12/02 03:14:20;;;;;;;30.00;18.00;;;;;;;-2.47;73.59;101327.05;99878;1296;138412;-70
2022/12/02 03:16:47;;;;;;;26.70;17.10;;;;;;;-2.46;73.56;101325.58;99843;1292;110107;-69
2022/12/02 03:19:15;;;;;;;24.80;17.20;;;;;;;-2.41;73.74;101330.16;99730;1294;109130;-70
2022/12/02 03:21:43;;;;;;;29.00;19.40;;;;;;;-2.40;73.40;101324.40;99765;1296;138927;-71
2022/12/02 03:24:10;;;;;;;30.50;19.30;;;;;;;-2.43;73.19;101324.13;99869;1293;109244;-70
2022/12/02 03:26:39;;;;;;;36.90;20.50;;;;;;;-2.47;73.32;101328.27;100271;1295;138024;-68
2022/12/02 03:29:08;;;;;;;36.40;22.30;;;;;;;-2.48;73.37;101325.83;100748;1299;111528;-68
2022/12/02 03:31:36;;;;;;;36.60;23.10;;;;;;;-2.50;73.13;101321.98;100760;1293;106976;-69
2022/12/02 03:34:04;;;;;;;33.70;22.30;;;;;;;-2.51;73.56;101318.76;101221;1301;95867;-69
2022/12/02 03:36:31;;;;;;;37.20;22.10;;;;;;;-2.50;73.38;101322.20;100807;1295;107116;-68
2022/12/02 03:38:58;;;;;;;32.50;20.00;;;;;;;-2.48;73.53;101317.16;100646;1293;139138;-69
2022/12/02 03:41:28;;;;;;;35.10;20.60;;;;;;;-2.45;73.60;101316.39;101226;1301;110031;-69
2022/12/02 03:43:57;;;;;;;32.80;20.50;;;;;;;-2.45;73.22;101317.62;101050;1294;139698;-68
2022/12/02 03:46:24;;;;;;;35.90;22.00;;;;;;;-2.42;73.41;101315.98;101227;1293;96196;-69
2022/12/02 03:48:53;;;;;;;34.20;21.10;;;;;;;-2.42;73.09;101316.67;101190;1286;107926;-69
2022/12/02 03:51:20;;;;;;;42.10;21.50;;;;;;;-2.41;73.55;101316.71;101075;1302;139138;-69
2022/12/02 03:53:47;;;;;;;33.60;21.10;;;;;;;-2.34;73.41;101317.97;101209;1300;110737;-70
2022/12/02 03:56:15;;;;;;;30.60;19.60;;;;;;;-2.28;73.16;101311.23;100443;1294;139384;-69
2022/12/02 03:58:49;;;;;;;32.70;21.30;;;;;;;-2.23;73.11;101310.23;99837;1294;99511;-69
2022/12/02 04:01:18;;;;;;;34.60;20.50;;;;;;;-2.18;73.26;101313.64;100922;1296;108422;-68
2022/12/02 04:03:45;;;;;;;33.20;22.30;;;;;;;-2.16;73.10;101315.75;100697;1294;137913;-69
2022/12/02 04:06:13;;;;;;;39.60;24.40;;;;;;;-2.18;72.82;101314.85;100916;1287;110066;-68
2022/12/02 04:08:40;;;;;;;38.50;24.20;;;;;;;-2.20;72.54;101316.11;100195;1287;138664;-70
2022/12/02 04:11:08;;;;;;;38.90;24.30;;;;;;;-2.24;72.76;101314.95;100923;1293;97814;-69
2022/12/02 04:13:35;;;;;;;36.70;23.00;;;;;;;-2.30;72.81;101312.52;99997;1294;107653;-70
2022/12/02 04:16:02;;;;;;;38.60;23.90;;;;;;;-2.35;72.98;101312.48;100207;1300;137666;-70
2022/12/02 04:18:30;;;;;;;44.60;26.20;;;;;;;-2.40;72.89;101306.85;100608;1294;110617;-70
2022/12/02 04:20:57;;;;;;;39.20;25.20;;;;;;;-2.46;72.66;101306.34;99755;1295;138762;-70
2022/12/02 04:23:24;;;;;;;41.50;26.00;;;;;;;-2.52;72.89;101300.30;100542;1294;98412;-70
2022/12/02 04:25:51;;;;;;;43.90;27.30;;;;;;;-2.56;73.08;101297.58;99635;1294;138820;-70
2022/12/02 04:28:19;;;;;;;37.50;23.80;;;;;;;-2.59;73.29;101296.46;100001;1299;97915;-69
2022/12/02 04:30:46;;;;;;;39.90;24.20;;;;;;;-2.62;73.19;101294.98;100086;1292;111327;-70
2022/12/02 04:33:13;;;;;;;43.40;26.60;;;;;;;-2.65;73.39;101290.95;99809;1294;137960;-69
2022/12/02 04:35:40;;;;;;;36.20;23.30;;;;;;;-2.69;73.62;101289.43;99860;1299;97738;-70
2022/12/02 04:38:08;;;;;;;41.20;25.10;;;;;;;-2.76;73.38;101295.27;100618;1295;138135;-70
2022/12/02 04:40:38;;;;;;;40.40;23.20;;;;;;;-2.82;73.84;101297.30;101190;1285;95553;-71
2022/12/02 04:43:06;;;;;;;35.90;22.80;;;;;;;-2.80;73.92;101298.55;100927;1296;110713;-68
2022/12/02 04:45:33;;;;;;;33.30;21.70;;;;;;;-2.74;74.13;101294.52;100041;1293;138801;-70
2022/12/02 04:48:00;;;;;;;37.50;21.10;;;;;;;-2.68;74.42;101290.66;99888;1299;97864;-70
2022/12/02 04:50:28;;;;;;;37.30;22.90;;;;;;;-2.63;74.30;101289.30;99737;1294;137622;-69
2022/12/02 04:52:55;;;;;;;39.00;22.00;;;;;;;-2.62;74.15;101291.41;100200;1287;97821;-70
2022/12/02 04:55:22;;;;;;;37.10;23.30;;;;;;;-2.60;74.21;101296.27;99842;1294;112037;-69
2022/12/02 04:57:49;;;;;;;42.50;24.60;;;;;;;-2.57;74.33;101296.00;99707;1294;138215;-69
2022/12/02 05:00:18;;;;;;;38.80;23.70;;;;;;;-2.55;74.29;101298.14;99771;1292;97839;-70
2022/12/02 05:02:45;;;;;;;35.50;21.70;;;;;;;-2.57;73.81;101296.85;100715;1302;137940;-70
2022/12/02 05:05:13;;;;;;;35.20;20.50;;;;;;;-2.63;73.86;101299.54;100833;1287;96972;-68
2022/12/02 05:07:40;;;;;;;36.30;21.20;;;;;;;-2.66;73.62;101300.60;99858;1294;110871;-70
2022/12/02 05:10:11;;;;;;;38.30;21.60;;;;;;;-2.67;73.70;101302.80;99833;1293;107775;-70
2022/12/02 05:12:38;;;;;;;34.00;19.50;;;;;;;-2.69;73.65;101304.76;100136;1301;98664;-70
2022/12/02 05:15:07;;;;;;;31.60;19.90;;;;;;;-2.71;73.47;101311.28;100378;1294;139508;-69
2022/12/02 05:17:34;;;;;;;32.80;20.10;;;;;;;-2.75;73.37;101313.23;99996;1294;98319;-70
2022/12/02 05:20:10;;;;;;;33.50;20.40;;;;;;;-2.77;73.58;101310.73;99764;1291;138234;-68
2022/12/02 05:22:38;;;;;;;32.80;20.10;;;;;;;-2.77;73.83;101311.61;100327;1296;107892;-70
2022/12/02 05:25:07;;;;;;;35.00;20.30;;;;;;;-2.74;74.12;101308.46;99898;1294;98336;-69
2022/12/02 05:27:35;;;;;;;35.20;20.00;;;;;;;-2.70;73.89;101308.44;100245;1290;138008;-70
2022/12/02 05:30:03;;;;;;;39.20;21.10;;;;;;;-2.69;73.98;101309.71;99891;1294;97849;-69
2022/12/02 05:32:30;;;;;;;40.70;22.50;;;;;;;-2.67;74.26;101309.11;99808;1296;137769;-69
2022/12/02 05:34:58;;;;;;;37.80;21.00;;;;;;;-2.65;74.05;101308.16;99865;1300;107768;-70
2022/12/02 05:37:25;;;;;;;37.90;21.50;;;;;;;-2.63;73.89;101307.36;99782;1296;97825;-69
2022/12/02 05:39:52;;;;;;;38.50;20.60;;;;;;;-2.62;73.87;101310.14;99766;1294;140039;-70
2022/12/02 05:42:20;;;;;;;31.30;19.40;;;;;;;-2.64;73.38;101307.69;99870;1296;98348;-70
2022/12/02 05:44:47;;;;;;;29.00;18.00;;;;;;;-2.66;73.33;101315.43;99854;1299;138304;-70
2022/12/02 05:47:16;;;;;;;34.80;20.10;;;;;;;-2.68;73.50;101316.91;99867;1300;107452;-69
2022/12/02 05:49:46;;;;;;;35.60;21.30;;;;;;;-2.68;73.58;101321.84;99669;1293;138033;-70
2022/12/02 05:52:21;;;;;;;35.30;19.50;;;;;;;-2.71;72.99;101324.73;99843;1296;106605;-70
2022/12/02 05:54:48;;;;;;;32.00;19.50;;;;;;;-2.80;72.87;101328.34;99864;1293;97921;-69
2022/12/02 05:57:23;;;;;;;35.00;19.70;;;;;;;-2.90;72.86;101331.48;99026;1301;1003620;-71
2022/12/02 05:59:57;;;;;;;36.60;19.10;;;;;;;-3.03;72.99;101337.64;100104;1293;107716;-70
2022/12/02 06:02:31;;;;;;;35.00;17.90;;;;;;;-3.09;73.29;101341.64;99750;1294;139135;-69
2022/12/02 06:05:20;;;;;;;28.30;16.80;;;;;;;-3.11;73.27;101350.25;99826;1295;108454;-69
2022/12/02 06:07:51;;;;;;;27.10;16.60;;;;;;;-3.07;73.12;101355.15;100898;1296;138614;-69
2022/12/02 06:10:25;;;;;;;34.90;17.50;;;;;;;-3.06;73.24;101349.95;99842;1294;111611;-68
2022/12/02 06:12:54;;;;;;;35.10;18.10;;;;;;;-3.03;73.27;101350.73;100708;1295;106482;-69
2022/12/02 06:15:21;;;;;;;33.60;18.80;;;;;;;-3.02;73.20;101350.92;99867;1295;141138;-70
2022/12/02 06:17:48;;;;;;;33.90;19.50;;;;;;;-3.04;73.19;101351.86;99907;1296;106240;-70
2022/12/02 06:20:25;;;;;;;32.40;17.30;;;;;;;-3.08;73.17;101355.10;99769;1296;138435;-71
2022/12/02 06:22:52;;;;;;;31.00;18.80;;;;;;;-3.14;73.32;101353.52;99898;1299;110650;-70
2022/12/02 06:25:30;;;;;;;36.30;20.60;;;;;;;-3.21;73.39;101355.30;99855;1288;106956;-69
2022/12/02 06:28:01;;;;;;;37.10;18.30;;;;;;;-3.25;73.50;101353.04;99779;1299;138677;-71
2022/12/02 06:30:36;;;;;;;32.30;18.30;;;;;;;-3.27;73.35;101350.75;99979;1299;107579;-71
2022/12/02 06:33:04;;;;;;;29.90;17.50;;;;;;;-3.24;73.72;101350.20;99626;1291;138669;-71
2022/12/02 06:35:33;;;;;;;29.50;18.90;;;;;;;-3.18;73.94;101354.20;99871;1297;111943;-71
2022/12/02 06:38:02;;;;;;;36.40;18.40;;;;;;;-3.11;74.00;101356.86;99629;1296;137923;-71
2022/12/02 06:40:33;;;;;;;31.50;18.00;;;;;;;-3.04;73.83;101356.98;99847;1297;98491;-71
2022/12/02 06:43:04;;;;;;;32.40;18.80;;;;;;;-2.98;73.75;101359.25;99890;1299;108236;-71
2022/12/02 06:45:32;;;;;;;32.30;19.30;;;;;;;-2.96;73.85;101360.71;98966;1293;1003054;-72
2022/12/02 06:48:13;;;;;;;34.80;19.90;;;;;;;-2.93;73.65;101363.89;99818;1294;111205;-72
2022/12/02 06:50:43;;;;;;;32.60;18.40;;;;;;;-2.94;73.39;101366.23;99667;1292;137772;-69
2022/12/02 06:53:34;;;;;;;32.00;18.60;;;;;;;-3.02;72.66;101370.86;99883;1291;99542;-70
2022/12/02 06:56:05;;;;;;;34.50;18.60;;;;;;;-3.14;73.00;101371.20;99691;1297;137906;-71
2022/12/02 06:58:36;;;;;;;33.70;17.50;;;;;;;-3.21;72.99;101373.85;99699;1297;1003127;-69
2022/12/02 07:01:19;;;;;;;33.00;18.20;;;;;;;-3.22;73.38;101373.29;100788;1299;110214;-69
2022/12/02 07:03:55;;;;;;;30.00;17.20;;;;;;;-3.15;73.58;101374.55;99708;1299;139535;-69
2022/12/02 07:06:25;;;;;;;33.30;17.70;;;;;;;-3.07;73.62;101371.83;99588;1293;1003036;-69
2022/12/02 07:08:55;;;;;;;34.30;17.70;;;;;;;-3.03;73.28;101379.13;99921;1301;138117;-68
2022/12/02 07:14:13;;;;;;;38.00;20.30;;;;;;;-3.01;73.38;101375.33;99744;1294;137761;-69
2022/12/02 07:16:41;;;;;;;43.20;21.30;;;;;;;-3.00;73.52;101375.17;99807;1293;107362;-70
2022/12/02 07:19:14;;;;;;;40.40;21.70;;;;;;;-3.01;73.50;101378.38;99872;1286;97843;-69
2022/12/02 07:21:42;;;;;;;47.50;27.00;;;;;;;-3.03;73.57;101378.80;99973;1295;138921;-70
2022/12/02 07:24:15;;;;;;;38.50;22.90;;;;;;;-3.04;73.59;101383.39;99889;1295;97915;-70
2022/12/02 07:26:45;;;;;;;44.40;21.80;;;;;;;-3.08;73.32;101379.46;99966;1293;137908;-70
2022/12/02 07:29:16;;;;;;;35.20;21.40;;;;;;;-3.11;73.61;101378.33;100354;1299;107618;-70
2022/12/02 07:31:45;;;;;;;31.30;19.10;;;;;;;-3.11;73.81;101377.81;100060;1294;97744;-70
2022/12/02 07:34:13;;;;;;;29.40;18.10;;;;;;;-3.05;73.75;101381.27;100533;1300;108360;-70
2022/12/02 07:36:41;;;;;;;36.50;18.40;;;;;;;-3.00;73.77;101383.68;99726;1293;97735;-70
2022/12/02 07:39:08;;;;;;;32.00;19.00;;;;;;;-2.96;73.67;101383.67;99743;1293;137875;-71
2022/12/02 07:41:38;;;;;;;35.70;19.80;;;;;;;-2.96;73.30;101383.70;99772;1294;108077;-71
2022/12/02 07:44:06;;;;;;;35.10;20.40;;;;;;;-2.93;73.32;101385.15;99676;1295;137984;-70
2022/12/02 07:46:34;;;;;;;34.90;19.90;;;;;;;-2.93;73.81;101382.77;101077;1296;108014;-71
2022/12/02 07:49:03;;;;;;;35.10;21.20;;;;;;;-2.92;73.43;101387.25;99877;1300;97966;-70
2022/12/02 07:51:30;;;;;;;36.60;21.90;;;;;;;-2.91;73.54;101382.00;99762;1299;137796;-70
2022/12/02 07:53:58;;;;;;;38.70;20.60;;;;;;;-2.93;73.52;101387.70;99741;1294;107942;-71
2022/12/02 07:56:25;;;;;;;35.30;20.90;;;;;;;-2.97;73.62;101386.35;99682;1297;138998;-71
2022/12/02 07:58:52;;;;;;;36.90;20.70;;;;;;;-2.99;73.58;101384.75;99843;1293;107450;-70
2022/12/02 08:01:40;;;;;;;34.90;19.90;;;;;;;-2.99;73.68;101384.73;99852;1293;97831;-70
2022/12/02 08:04:08;;;;;;;35.00;18.30;;;;;;;-2.96;73.76;101385.70;100204;1293;111208;-70
2022/12/02 08:06:35;;;;;;;43.20;21.20;;;;;;;-2.92;73.87;101380.27;100023;1292;108307;-70
2022/12/02 08:09:06;;;;;;;35.70;20.40;;;;;;;-2.86;73.77;101377.25;100298;1295;137959;-70
2022/12/02 08:11:33;;;;;;;39.60;20.60;;;;;;;-2.84;73.95;101377.18;99836;1293;106924;-72
2022/12/02 08:14:00;;;;;;;38.00;21.40;;;;;;;-2.81;73.90;101374.59;99742;1296;138548;-69
2022/12/02 08:16:28;;;;;;;39.70;21.90;;;;;;;-2.80;73.64;101373.79;99769;1294;111781;-69
2022/12/02 08:18:55;;;;;;;37.50;21.20;;;;;;;-2.83;73.69;101373.65;99763;1294;107879;-69
2022/12/02 08:21:22;;;;;;;42.20;22.10;;;;;;;-2.84;73.81;101372.09;100817;1286;137796;-70
2022/12/02 08:23:49;;;;;;;43.70;22.10;;;;;;;-2.86;73.56;101363.85;101081;1302;108694;-70
2022/12/02 08:26:17;;;;;;;37.10;21.00;;;;;;;-2.88;73.87;101364.25;100960;1301;139496;-70
2022/12/02 08:28:44;;;;;;;43.50;22.80;;;;;;;-2.90;73.81;101357.86;100466;1294;111991;-70
2022/12/02 08:31:18;;;;;;;40.50;20.40;;;;;;;-2.91;73.74;101363.13;99734;1293;108838;-69
2022/12/02 08:33:45;;;;;;;38.60;21.10;;;;;;;-2.94;73.38;101361.30;100357;1302;138434;-69
2022/12/02 08:36:14;;;;;;;41.90;20.90;;;;;;;-2.94;73.90;101368.61;99697;1300;107987;-70
2022/12/02 08:38:42;;;;;;;36.70;20.80;;;;;;;-2.90;73.89;101364.02;99762;1293;139264;-69
2022/12/02 08:41:09;;;;;;;41.90;21.10;;;;;;;-2.88;73.60;101363.55;99945;1293;111193;-69
2022/12/02 08:43:43;;;;;;;35.80;20.80;;;;;;;-2.89;73.83;101362.17;99804;1299;108027;-69
2022/12/02 08:46:11;;;;;;;37.60;22.40;;;;;;;-2.86;73.75;101362.48;100657;1287;96349;-70
2022/12/02 08:48:39;;;;;;;38.10;21.00;;;;;;;-2.82;73.93;101361.27;100332;1296;107979;-66
2022/12/02 08:51:07;;;;;;;38.10;21.80;;;;;;;-2.82;73.70;101361.27;100270;1295;138408;-69
2022/12/02 08:53:34;;;;;;;42.20;22.90;;;;;;;-2.84;73.72;101362.23;100231;1298;110695;-71
2022/12/02 08:56:01;;;;;;;39.60;22.80;;;;;;;-2.85;73.87;101369.86;100148;1296;138511;-69
2022/12/02 08:58:29;;;;;;;36.70;22.60;;;;;;;-2.88;73.64;101367.50;101241;1300;96408;-70
2022/12/02 09:00:57;;;;;;;42.70;23.10;;;;;;;-3.00;73.51;101371.80;100016;1295;108035;-70
2022/12/02 09:03:24;;;;;;;40.80;23.60;;;;;;;-3.06;73.59;101371.20;100001;1277;141146;-71
2022/12/02 09:05:51;;;;;;;39.90;23.40;;;;;;;-3.09;73.93;101367.83;100052;1290;112166;-70
2022/12/02 09:08:18;;;;;;;44.50;24.30;;;;;;;-3.11;74.08;101370.81;99886;1297;138979;-71
2022/12/02 09:10:47;;;;;;;41.00;23.60;;;;;;;-3.18;74.16;101368.66;100135;1296;97896;-70
2022/12/02 09:13:15;;;;;;;39.80;22.40;;;;;;;-3.20;74.07;101371.48;100471;1292;105173;-72
2022/12/02 09:15:42;;;;;;;37.90;22.60;;;;;;;-3.18;74.02;101367.11;99930;1291;138844;-68
2022/12/02 09:18:09;;;;;;;41.60;22.40;;;;;;;-3.16;74.40;101368.77;100021;1296;111489;-71
2022/12/02 09:20:41;;;;;;;42.20;25.30;;;;;;;-3.13;74.43;101368.20;99645;1292;1002472;-69
2022/12/02 09:23:08;;;;;;;39.40;22.70;;;;;;;-3.10;74.82;101373.25;100196;1292;98421;-70
2022/12/02 09:25:35;;;;;;;37.40;21.90;;;;;;;-3.06;74.35;101368.01;100244;1298;107624;-69
2022/12/02 09:28:03;;;;;;;45.20;23.50;;;;;;;-3.02;74.23;101366.10;99788;1284;138564;-67
2022/12/02 09:30:31;;;;;;;45.20;24.40;;;;;;;-2.99;74.28;101368.40;99867;1299;111432;-69
2022/12/02 09:33:01;;;;;;;50.90;25.60;;;;;;;-2.98;74.20;101364.03;100467;1298;138430;-67
2022/12/02 09:35:28;;;;;;;46.60;25.20;;;;;;;-3.02;74.15;101365.08;100962;1290;97746;-67
2022/12/02 09:37:55;;;;;;;45.20;25.20;;;;;;;-3.09;74.28;101363.77;99826;1290;139333;-69
2022/12/02 09:40:23;;;;;;;42.90;23.90;;;;;;;-3.10;74.22;101364.06;100211;1293;97947;-68
2022/12/02 09:42:52;;;;;;;42.20;23.50;;;;;;;-3.10;74.15;101358.45;101213;1299;110671;-68
2022/12/02 09:45:20;;;;;;;40.90;22.40;;;;;;;-3.08;74.33;101363.11;99951;1290;140227;-67
2022/12/02 09:47:48;;;;;;;40.20;22.40;;;;;;;-3.05;74.65;101358.81;101083;1299;96321;-68
2022/12/02 09:50:17;;;;;;;39.40;23.70;;;;;;;-2.97;74.49;101359.14;99905;1290;139508;-67
2022/12/02 09:52:45;;;;;;;46.50;24.50;;;;;;;-2.91;74.24;101359.38;100484;1291;97666;-68
2022/12/02 09:55:17;;;;;;;47.00;25.20;;;;;;;-2.88;74.16;101353.54;100237;1292;110284;-67
2022/12/02 09:57:44;;;;;;;40.80;23.80;;;;;;;-2.85;73.94;101360.98;101110;1291;138874;-68
2022/12/02 10:00:17;;;;;;;47.80;25.10;;;;;;;-2.85;73.90;101355.89;100186;1290;97726;-68
2022/12/02 10:02:45;;;;;;;44.90;26.00;;;;;;;-2.91;73.44;101362.58;100150;1292;137796;-68
2022/12/02 10:05:18;;;;;;;46.90;25.70;;;;;;;-3.03;73.39;101361.95;100155;1299;97825;-67
2022/12/02 10:07:46;;;;;;;54.50;27.20;;;;;;;-3.09;73.64;101357.97;100010;1294;111480;-68
2022/12/02 10:10:18;;;;;;;49.90;27.00;;;;;;;-3.12;73.96;101358.17;99991;1290;108105;-68
2022/12/02 10:12:46;;;;;;;48.60;27.20;;;;;;;-3.15;73.82;101362.00;101114;1296;95879;-68
2022/12/02 10:15:17;;;;;;;45.90;25.50;;;;;;;-3.15;74.20;101362.68;101232;1304;138702;-68
2022/12/02 10:17:46;;;;;;;46.50;25.60;;;;;;;-3.14;74.14;101362.87;99498;1293;1004369;-67
2022/12/02 10:20:19;;;;;;;45.10;25.30;;;;;;;-3.14;73.85;101359.30;99389;1297;1003795;-67
2022/12/02 10:23:07;;;;;;;45.50;25.90;;;;;;;-3.12;74.37;101356.98;100344;1290;108485;-72
2022/12/02 10:25:35;;;;;;;47.20;26.30;;;;;;;-3.08;74.59;101360.22;100303;1287;97857;-73
2022/12/02 10:28:03;;;;;;;50.30;25.80;;;;;;;-3.07;74.14;101357.36;100905;1299;140101;-72
2022/12/02 10:30:31;;;;;;;46.80;26.80;;;;;;;-3.06;74.27;101360.66;99964;1293;97808;-71
2022/12/02 10:33:02;;;;;;;49.90;26.70;;;;;;;-3.07;74.10;101361.98;99809;1293;137925;-70
2022/12/02 10:35:42;;;;;;;46.60;25.90;;;;;;;-3.07;74.15;101360.93;99861;1291;107523;-71
2022/12/02 10:38:29;;;;;;;50.00;26.90;;;;;;;-3.09;73.91;101359.34;99961;1298;139601;-71
2022/12/02 10:41:15;;;;;;;48.40;27.00;;;;;;;-3.09;74.01;101357.44;99964;1289;107559;-71
2022/12/02 10:43:45;;;;;;;50.30;28.50;;;;;;;-3.07;74.02;101357.73;100568;1290;97807;-71
2022/12/02 10:46:14;;;;;;;52.60;28.60;;;;;;;-3.05;73.97;101356.77;100163;1293;110519;-71
2022/12/02 10:48:41;;;;;;;54.50;27.80;;;;;;;-3.10;73.74;101359.13;99727;1293;107380;-71
2022/12/02 10:51:14;;;;;;;52.30;27.60;;;;;;;-3.12;74.18;101351.90;100204;1290;139415;-72
2022/12/02 10:53:41;;;;;;;52.10;27.60;;;;;;;-3.15;73.90;101353.64;99965;1284;107893;-71
2022/12/02 10:56:15;;;;;;;47.10;25.80;;;;;;;-3.21;73.86;101350.35;99783;1287;138653;-70
2022/12/02 10:58:42;;;;;;;47.50;25.40;;;;;;;-3.19;74.25;101351.97;100232;1295;110289;-70
2022/12/02 11:01:13;;;;;;;46.30;26.00;;;;;;;-3.11;74.41;101353.98;99986;1285;108044;-70
2022/12/02 11:03:40;;;;;;;56.60;26.80;;;;;;;-3.07;74.30;101356.36;100923;1290;138341;-71
2022/12/02 11:06:13;;;;;;;52.20;28.20;;;;;;;-3.00;74.33;101353.91;100513;1290;107537;-70
2022/12/02 11:08:42;;;;;;;53.90;29.60;;;;;;;-2.92;74.13;101345.73;99990;1290;138021;-71
2022/12/02 11:11:16;;;;;;;55.10;30.00;;;;;;;-2.89;74.12;101345.65;99976;1292;112916;-71
2022/12/02 11:13:59;;;;;;;53.10;28.90;;;;;;;-2.92;73.77;101348.59;99864;1290;109593;-72
2022/12/02 11:17:04;;;;;;;57.50;29.90;;;;;;;-2.97;73.71;101345.52;99841;1291;99576;-71